sensor_id;sensor_type;location;lat;lon;timestamp;P1;durP1;ratioP1;P2;durP2;ratioP2
5569;SDS011;2808;51.240;6.794;2022-08-19T00:00:38;15.97;;;7.97;;
5569;SDS011;2808;51.240;6.794;2022-08-19T00:03:06;13.10;;;7.80;;
5569;SDS011;2808;51.240;6.794;2022-08-19T00:05:33;12.63;;;7.60;;
5569;SDS011;2808;51.240;6.794;2022-08-19T00:08:02;13.53;;;8.27;;
5569;SDS011;2808;51.240;6.794;2022-08-19T00:10:30;14.40;;;8.27;;
5569;SDS011;2808;51.240;6.794;2022-08-19T00:12:59;12.77;;;7.00;;
5569;SDS011;2808;51.240;6.794;2022-08-19T00:15:26;15.47;;;7.40;;
5569;SDS011;2808;51.240;6.794;2022-08-19T00:17:53;10.30;;;7.00;;
5569;SDS011;2808;51.240;6.794;2022-08-19T00:20:21;12.77;;;7.70;;
5569;SDS011;2808;51.240;6.794;2022-08-19T00:22:49;11.90;;;7.30;;
5569;SDS011;2808;51.240;6.794;2022-08-19T00:25:18;12.17;;;6.80;;
5569;SDS011;2808;51.240;6.794;2022-08-19T00:27:45;10.30;;;7.30;;
5569;SDS011;2808;51.240;6.794;2022-08-19T00:30:13;15.73;;;7.37;;
5569;SDS011;2808;51.240;6.794;2022-08-19T00:32:41;10.23;;;7.57;;
5569;SDS011;2808;51.240;6.794;2022-08-19T00:35:08;13.47;;;7.97;;
5569;SDS011;2808;51.240;6.794;2022-08-19T00:37:36;11.70;;;7.80;;
5569;SDS011;2808;51.240;6.794;2022-08-19T00:40:08;14.77;;;7.47;;
5569;SDS011;2808;51.240;6.794;2022-08-19T00:42:39;13.47;;;8.40;;
5569;SDS011;2808;51.240;6.794;2022-08-19T00:45:09;12.23;;;7.80;;
5569;SDS011;2808;51.240;6.794;2022-08-19T00:47:39;12.37;;;7.33;;
5569;SDS011;2808;51.240;6.794;2022-08-19T00:50:07;12.17;;;7.30;;
5569;SDS011;2808;51.240;6.794;2022-08-19T00:52:36;13.20;;;7.53;;
5569;SDS011;2808;51.240;6.794;2022-08-19T00:55:10;12.30;;;7.63;;
5569;SDS011;2808;51.240;6.794;2022-08-19T00:57:44;12.60;;;7.63;;
5569;SDS011;2808;51.240;6.794;2022-08-19T01:00:17;12.37;;;7.87;;
5569;SDS011;2808;51.240;6.794;2022-08-19T01:02:45;16.83;;;8.10;;
5569;SDS011;2808;51.240;6.794;2022-08-19T01:05:14;13.17;;;7.57;;
5569;SDS011;2808;51.240;6.794;2022-08-19T01:07:46;12.73;;;8.40;;
5569;SDS011;2808;51.240;6.794;2022-08-19T01:10:16;14.83;;;8.43;;
5569;SDS011;2808;51.240;6.794;2022-08-19T01:12:47;14.97;;;8.87;;
5569;SDS011;2808;51.240;6.794;2022-08-19T01:15:16;14.50;;;8.17;;
5569;SDS011;2808;51.240;6.794;2022-08-19T01:17:46;12.17;;;7.87;;
5569;SDS011;2808;51.240;6.794;2022-08-19T01:20:16;15.27;;;8.77;;
5569;SDS011;2808;51.240;6.794;2022-08-19T01:22:49;12.40;;;7.33;;
5569;SDS011;2808;51.240;6.794;2022-08-19T01:25:19;10.83;;;7.90;;
5569;SDS011;2808;51.240;6.794;2022-08-19T01:27:53;14.57;;;8.23;;
5569;SDS011;2808;51.240;6.794;2022-08-19T01:30:26;15.30;;;7.50;;
5569;SDS011;2808;51.240;6.794;2022-08-19T01:32:55;16.03;;;8.50;;
5569;SDS011;2808;51.240;6.794;2022-08-19T01:35:26;14.03;;;8.17;;
5569;SDS011;2808;51.240;6.794;2022-08-19T01:37:58;10.53;;;7.63;;
5569;SDS011;2808;51.240;6.794;2022-08-19T01:40:27;13.93;;;7.60;;
5569;SDS011;2808;51.240;6.794;2022-08-19T01:42:56;11.47;;;7.63;;
5569;SDS011;2808;51.240;6.794;2022-08-19T01:45:25;17.10;;;9.27;;
5569;SDS011;2808;51.240;6.794;2022-08-19T01:47:54;11.47;;;7.40;;
5569;SDS011;2808;51.240;6.794;2022-08-19T01:50:22;17.10;;;8.13;;
5569;SDS011;2808;51.240;6.794;2022-08-19T01:52:51;12.10;;;7.90;;
5569;SDS011;2808;51.240;6.794;2022-08-19T01:55:21;15.27;;;7.97;;
5569;SDS011;2808;51.240;6.794;2022-08-19T01:57:50;12.33;;;8.30;;
5569;SDS011;2808;51.240;6.794;2022-08-19T02:00:22;12.60;;;8.10;;
5569;SDS011;2808;51.240;6.794;2022-08-19T02:02:52;13.50;;;8.00;;
5569;SDS011;2808;51.240;6.794;2022-08-19T02:05:19;17.50;;;8.67;;
5569;SDS011;2808;51.240;6.794;2022-08-19T02:07:47;13.57;;;8.20;;
5569;SDS011;2808;51.240;6.794;2022-08-19T02:10:17;11.63;;;8.03;;
5569;SDS011;2808;51.240;6.794;2022-08-19T02:12:47;15.47;;;7.80;;
5569;SDS011;2808;51.240;6.794;2022-08-19T02:15:16;11.83;;;7.47;;
5569;SDS011;2808;51.240;6.794;2022-08-19T02:17:45;17.43;;;8.50;;
5569;SDS011;2808;51.240;6.794;2022-08-19T02:20:13;10.13;;;7.70;;
5569;SDS011;2808;51.240;6.794;2022-08-19T02:22:42;15.47;;;8.13;;
5569;SDS011;2808;51.240;6.794;2022-08-19T02:25:10;13.30;;;8.00;;
5569;SDS011;2808;51.240;6.794;2022-08-19T02:27:40;11.93;;;8.20;;
5569;SDS011;2808;51.240;6.794;2022-08-19T02:30:10;11.07;;;8.27;;
5569;SDS011;2808;51.240;6.794;2022-08-19T02:32:40;12.73;;;8.20;;
5569;SDS011;2808;51.240;6.794;2022-08-19T02:35:08;13.57;;;7.83;;
5569;SDS011;2808;51.240;6.794;2022-08-19T02:37:36;12.00;;;7.00;;
5569;SDS011;2808;51.240;6.794;2022-08-19T02:40:21;17.90;;;8.60;;
5569;SDS011;2808;51.240;6.794;2022-08-19T02:42:50;13.03;;;8.43;;
5569;SDS011;2808;51.240;6.794;2022-08-19T02:45:21;15.13;;;8.80;;
5569;SDS011;2808;51.240;6.794;2022-08-19T02:47:49;15.00;;;9.97;;
5569;SDS011;2808;51.240;6.794;2022-08-19T02:50:16;17.03;;;11.93;;
5569;SDS011;2808;51.240;6.794;2022-08-19T02:52:44;21.37;;;12.77;;
5569;SDS011;2808;51.240;6.794;2022-08-19T02:55:11;16.87;;;13.40;;
5569;SDS011;2808;51.240;6.794;2022-08-19T02:57:38;22.80;;;13.30;;
5569;SDS011;2808;51.240;6.794;2022-08-19T03:00:08;21.50;;;13.20;;
5569;SDS011;2808;51.240;6.794;2022-08-19T03:02:37;20.43;;;13.00;;
5569;SDS011;2808;51.240;6.794;2022-08-19T03:05:06;19.30;;;12.57;;
5569;SDS011;2808;51.240;6.794;2022-08-19T03:07:35;17.63;;;12.60;;
5569;SDS011;2808;51.240;6.794;2022-08-19T03:10:03;21.33;;;14.63;;
5569;SDS011;2808;51.240;6.794;2022-08-19T03:12:34;25.70;;;15.97;;
5569;SDS011;2808;51.240;6.794;2022-08-19T03:15:05;29.17;;;15.23;;
5569;SDS011;2808;51.240;6.794;2022-08-19T03:17:35;24.97;;;17.70;;
5569;SDS011;2808;51.240;6.794;2022-08-19T03:20:04;34.70;;;21.40;;
5569;SDS011;2808;51.240;6.794;2022-08-19T03:22:32;28.57;;;20.23;;
5569;SDS011;2808;51.240;6.794;2022-08-19T03:24:59;26.53;;;19.10;;
5569;SDS011;2808;51.240;6.794;2022-08-19T03:27:27;31.73;;;20.77;;
5569;SDS011;2808;51.240;6.794;2022-08-19T03:29:54;35.13;;;23.90;;
5569;SDS011;2808;51.240;6.794;2022-08-19T03:32:22;36.07;;;24.20;;
5569;SDS011;2808;51.240;6.794;2022-08-19T03:34:51;36.03;;;25.13;;
5569;SDS011;2808;51.240;6.794;2022-08-19T03:37:18;38.40;;;27.87;;
5569;SDS011;2808;51.240;6.794;2022-08-19T03:39:47;40.50;;;28.20;;
5569;SDS011;2808;51.240;6.794;2022-08-19T03:42:18;45.23;;;27.90;;
5569;SDS011;2808;51.240;6.794;2022-08-19T03:44:45;39.17;;;28.80;;
5569;SDS011;2808;51.240;6.794;2022-08-19T03:47:13;40.73;;;29.13;;
5569;SDS011;2808;51.240;6.794;2022-08-19T03:49:41;39.87;;;28.60;;
5569;SDS011;2808;51.240;6.794;2022-08-19T03:52:10;40.43;;;27.33;;
5569;SDS011;2808;51.240;6.794;2022-08-19T03:54:39;38.37;;;26.43;;
5569;SDS011;2808;51.240;6.794;2022-08-19T03:57:06;40.40;;;28.80;;
5569;SDS011;2808;51.240;6.794;2022-08-19T03:59:35;38.83;;;28.10;;
5569;SDS011;2808;51.240;6.794;2022-08-19T04:02:06;42.43;;;29.03;;
5569;SDS011;2808;51.240;6.794;2022-08-19T04:04:37;42.80;;;29.80;;
5569;SDS011;2808;51.240;6.794;2022-08-19T04:07:05;38.37;;;27.00;;
5569;SDS011;2808;51.240;6.794;2022-08-19T04:09:36;41.53;;;28.70;;
5569;SDS011;2808;51.240;6.794;2022-08-19T04:12:06;42.30;;;29.10;;
5569;SDS011;2808;51.240;6.794;2022-08-19T04:14:34;46.17;;;29.40;;
5569;SDS011;2808;51.240;6.794;2022-08-19T04:17:02;41.10;;;29.40;;
5569;SDS011;2808;51.240;6.794;2022-08-19T04:19:31;80.73;;;52.73;;
5569;SDS011;2808;51.240;6.794;2022-08-19T04:21:58;89.17;;;57.20;;
5569;SDS011;2808;51.240;6.794;2022-08-19T04:24:27;58.23;;;39.33;;
5569;SDS011;2808;51.240;6.794;2022-08-19T04:26:56;48.07;;;34.70;;
5569;SDS011;2808;51.240;6.794;2022-08-19T04:29:25;44.23;;;30.70;;
5569;SDS011;2808;51.240;6.794;2022-08-19T04:31:53;45.03;;;32.03;;
5569;SDS011;2808;51.240;6.794;2022-08-19T04:34:22;47.70;;;32.57;;
5569;SDS011;2808;51.240;6.794;2022-08-19T04:36:52;48.63;;;33.47;;
5569;SDS011;2808;51.240;6.794;2022-08-19T04:39:22;44.30;;;30.67;;
5569;SDS011;2808;51.240;6.794;2022-08-19T04:42:13;43.70;;;31.10;;
5569;SDS011;2808;51.240;6.794;2022-08-19T04:45:00;46.90;;;32.47;;
5569;SDS011;2808;51.240;6.794;2022-08-19T04:47:28;41.73;;;28.73;;
5569;SDS011;2808;51.240;6.794;2022-08-19T04:49:56;46.83;;;32.37;;
5569;SDS011;2808;51.240;6.794;2022-08-19T04:52:23;71.00;;;36.77;;
5569;SDS011;2808;51.240;6.794;2022-08-19T04:54:51;65.40;;;35.27;;
5569;SDS011;2808;51.240;6.794;2022-08-19T04:57:21;57.27;;;34.17;;
5569;SDS011;2808;51.240;6.794;2022-08-19T04:59:49;54.67;;;32.40;;
5569;SDS011;2808;51.240;6.794;2022-08-19T05:02:20;50.33;;;33.13;;
5569;SDS011;2808;51.240;6.794;2022-08-19T05:04:50;47.40;;;29.63;;
5569;SDS011;2808;51.240;6.794;2022-08-19T05:07:21;49.97;;;30.77;;
5569;SDS011;2808;51.240;6.794;2022-08-19T05:09:49;47.63;;;30.47;;
5569;SDS011;2808;51.240;6.794;2022-08-19T05:12:17;48.70;;;32.80;;
5569;SDS011;2808;51.240;6.794;2022-08-19T05:14:46;48.67;;;32.07;;
5569;SDS011;2808;51.240;6.794;2022-08-19T05:17:14;46.97;;;33.07;;
5569;SDS011;2808;51.240;6.794;2022-08-19T05:19:45;48.00;;;33.23;;
5569;SDS011;2808;51.240;6.794;2022-08-19T05:22:29;54.07;;;35.60;;
5569;SDS011;2808;51.240;6.794;2022-08-19T05:25:01;56.00;;;36.30;;
5569;SDS011;2808;51.240;6.794;2022-08-19T05:27:31;55.57;;;37.67;;
5569;SDS011;2808;51.240;6.794;2022-08-19T05:30:00;61.67;;;36.10;;
5569;SDS011;2808;51.240;6.794;2022-08-19T05:32:29;47.57;;;34.43;;
5569;SDS011;2808;51.240;6.794;2022-08-19T05:34:56;58.27;;;38.93;;
5569;SDS011;2808;51.240;6.794;2022-08-19T05:37:25;61.37;;;40.97;;
5569;SDS011;2808;51.240;6.794;2022-08-19T05:39:53;61.00;;;38.37;;
5569;SDS011;2808;51.240;6.794;2022-08-19T05:42:20;54.83;;;37.70;;
5569;SDS011;2808;51.240;6.794;2022-08-19T05:44:49;54.57;;;37.37;;
5569;SDS011;2808;51.240;6.794;2022-08-19T05:47:20;54.40;;;35.20;;
5569;SDS011;2808;51.240;6.794;2022-08-19T05:49:48;58.17;;;36.57;;
5569;SDS011;2808;51.240;6.794;2022-08-19T05:52:16;52.83;;;36.37;;
5569;SDS011;2808;51.240;6.794;2022-08-19T05:54:54;53.40;;;36.70;;
5569;SDS011;2808;51.240;6.794;2022-08-19T05:57:21;56.90;;;36.87;;
5569;SDS011;2808;51.240;6.794;2022-08-19T05:59:53;53.40;;;36.17;;
5569;SDS011;2808;51.240;6.794;2022-08-19T06:02:23;61.37;;;37.17;;
5569;SDS011;2808;51.240;6.794;2022-08-19T06:04:51;57.27;;;35.70;;
5569;SDS011;2808;51.240;6.794;2022-08-19T06:07:19;65.23;;;35.50;;
5569;SDS011;2808;51.240;6.794;2022-08-19T06:09:46;47.03;;;33.60;;
5569;SDS011;2808;51.240;6.794;2022-08-19T06:12:14;54.87;;;35.63;;
5569;SDS011;2808;51.240;6.794;2022-08-19T06:14:44;57.07;;;36.40;;
5569;SDS011;2808;51.240;6.794;2022-08-19T06:17:11;55.10;;;37.90;;
5569;SDS011;2808;51.240;6.794;2022-08-19T06:19:42;47.93;;;33.07;;
5569;SDS011;2808;51.240;6.794;2022-08-19T06:22:10;48.20;;;35.40;;
5569;SDS011;2808;51.240;6.794;2022-08-19T06:24:38;50.70;;;33.60;;
5569;SDS011;2808;51.240;6.794;2022-08-19T06:27:07;50.87;;;32.07;;
5569;SDS011;2808;51.240;6.794;2022-08-19T06:29:35;47.80;;;32.40;;
5569;SDS011;2808;51.240;6.794;2022-08-19T06:32:03;47.03;;;30.90;;
5569;SDS011;2808;51.240;6.794;2022-08-19T06:34:33;47.17;;;32.03;;
5569;SDS011;2808;51.240;6.794;2022-08-19T06:37:02;45.07;;;32.03;;
5569;SDS011;2808;51.240;6.794;2022-08-19T06:39:32;46.83;;;32.80;;
5569;SDS011;2808;51.240;6.794;2022-08-19T06:42:06;43.33;;;31.83;;
5569;SDS011;2808;51.240;6.794;2022-08-19T06:44:37;44.80;;;30.27;;
5569;SDS011;2808;51.240;6.794;2022-08-19T06:47:07;48.93;;;32.10;;
5569;SDS011;2808;51.240;6.794;2022-08-19T06:49:36;38.10;;;27.93;;
5569;SDS011;2808;51.240;6.794;2022-08-19T06:52:05;45.43;;;28.57;;
5569;SDS011;2808;51.240;6.794;2022-08-19T06:54:33;45.57;;;31.43;;
5569;SDS011;2808;51.240;6.794;2022-08-19T06:57:01;49.00;;;32.63;;
5569;SDS011;2808;51.240;6.794;2022-08-19T06:59:29;46.13;;;32.80;;
5569;SDS011;2808;51.240;6.794;2022-08-19T07:01:58;45.03;;;28.50;;
5569;SDS011;2808;51.240;6.794;2022-08-19T07:04:28;43.23;;;30.93;;
5569;SDS011;2808;51.240;6.794;2022-08-19T07:06:57;44.13;;;29.90;;
5569;SDS011;2808;51.240;6.794;2022-08-19T07:09:28;39.37;;;26.77;;
5569;SDS011;2808;51.240;6.794;2022-08-19T07:11:56;39.03;;;27.80;;
5569;SDS011;2808;51.240;6.794;2022-08-19T07:14:25;47.30;;;27.20;;
5569;SDS011;2808;51.240;6.794;2022-08-19T07:16:54;43.87;;;26.70;;
5569;SDS011;2808;51.240;6.794;2022-08-19T07:19:23;40.23;;;27.07;;
5569;SDS011;2808;51.240;6.794;2022-08-19T07:21:53;46.20;;;29.70;;
5569;SDS011;2808;51.240;6.794;2022-08-19T07:24:22;43.73;;;30.33;;
5569;SDS011;2808;51.240;6.794;2022-08-19T07:26:52;46.10;;;29.80;;
5569;SDS011;2808;51.240;6.794;2022-08-19T07:29:27;40.77;;;29.23;;
5569;SDS011;2808;51.240;6.794;2022-08-19T07:31:58;39.83;;;27.80;;
5569;SDS011;2808;51.240;6.794;2022-08-19T07:34:27;46.00;;;28.07;;
5569;SDS011;2808;51.240;6.794;2022-08-19T07:36:56;45.50;;;25.87;;
5569;SDS011;2808;51.240;6.794;2022-08-19T07:39:25;36.50;;;22.97;;
5569;SDS011;2808;51.240;6.794;2022-08-19T07:41:59;35.50;;;21.80;;
5569;SDS011;2808;51.240;6.794;2022-08-19T07:44:32;32.67;;;20.10;;
5569;SDS011;2808;51.240;6.794;2022-08-19T07:47:04;30.13;;;20.00;;
5569;SDS011;2808;51.240;6.794;2022-08-19T07:49:32;31.47;;;19.30;;
5569;SDS011;2808;51.240;6.794;2022-08-19T07:52:01;27.20;;;18.17;;
5569;SDS011;2808;51.240;6.794;2022-08-19T07:54:30;27.90;;;17.40;;
5569;SDS011;2808;51.240;6.794;2022-08-19T07:57:01;19.77;;;14.87;;
5569;SDS011;2808;51.240;6.794;2022-08-19T07:59:30;30.63;;;17.00;;
5569;SDS011;2808;51.240;6.794;2022-08-19T08:01:58;23.73;;;15.50;;
5569;SDS011;2808;51.240;6.794;2022-08-19T08:04:25;19.40;;;15.13;;
5569;SDS011;2808;51.240;6.794;2022-08-19T08:07:13;22.83;;;14.70;;
5569;SDS011;2808;51.240;6.794;2022-08-19T08:09:58;25.80;;;16.30;;
5569;SDS011;2808;51.240;6.794;2022-08-19T08:12:28;27.03;;;18.77;;
5569;SDS011;2808;51.240;6.794;2022-08-19T08:15:00;30.77;;;20.57;;
5569;SDS011;2808;51.240;6.794;2022-08-19T08:17:31;31.17;;;20.10;;
5569;SDS011;2808;51.240;6.794;2022-08-19T08:19:58;31.70;;;20.50;;
5569;SDS011;2808;51.240;6.794;2022-08-19T08:22:26;40.33;;;23.83;;
5569;SDS011;2808;51.240;6.794;2022-08-19T08:25:14;42.20;;;26.87;;
5569;SDS011;2808;51.240;6.794;2022-08-19T08:27:47;47.97;;;28.50;;
5569;SDS011;2808;51.240;6.794;2022-08-19T08:30:16;47.77;;;31.03;;
5569;SDS011;2808;51.240;6.794;2022-08-19T08:32:45;50.07;;;31.57;;
5569;SDS011;2808;51.240;6.794;2022-08-19T08:35:14;52.27;;;31.50;;
5569;SDS011;2808;51.240;6.794;2022-08-19T08:37:43;53.30;;;31.63;;
5569;SDS011;2808;51.240;6.794;2022-08-19T08:40:14;42.50;;;27.47;;
5569;SDS011;2808;51.240;6.794;2022-08-19T08:42:47;43.13;;;25.73;;
5569;SDS011;2808;51.240;6.794;2022-08-19T08:45:23;40.47;;;28.33;;
5569;SDS011;2808;51.240;6.794;2022-08-19T08:47:53;41.67;;;28.40;;
5569;SDS011;2808;51.240;6.794;2022-08-19T08:50:28;31.67;;;21.90;;
5569;SDS011;2808;51.240;6.794;2022-08-19T08:53:01;51.80;;;29.73;;
5569;SDS011;2808;51.240;6.794;2022-08-19T08:55:32;48.43;;;29.80;;
5569;SDS011;2808;51.240;6.794;2022-08-19T08:58:03;46.00;;;30.03;;
5569;SDS011;2808;51.240;6.794;2022-08-19T09:00:32;43.63;;;27.77;;
5569;SDS011;2808;51.240;6.794;2022-08-19T09:03:03;34.53;;;22.60;;
5569;SDS011;2808;51.240;6.794;2022-08-19T09:05:57;32.97;;;22.50;;
5569;SDS011;2808;51.240;6.794;2022-08-19T09:08:32;38.43;;;23.97;;
5569;SDS011;2808;51.240;6.794;2022-08-19T09:11:19;37.10;;;24.23;;
5569;SDS011;2808;51.240;6.794;2022-08-19T09:14:24;39.40;;;24.93;;
5569;SDS011;2808;51.240;6.794;2022-08-19T09:17:08;36.13;;;21.30;;
5569;SDS011;2808;51.240;6.794;2022-08-19T09:25:43;32.60;;;19.33;;
5569;SDS011;2808;51.240;6.794;2022-08-19T09:28:12;35.13;;;18.30;;
5569;SDS011;2808;51.240;6.794;2022-08-19T09:30:53;26.27;;;17.87;;
5569;SDS011;2808;51.240;6.794;2022-08-19T09:33:23;21.80;;;14.07;;
5569;SDS011;2808;51.240;6.794;2022-08-19T09:36:01;23.60;;;13.00;;
5569;SDS011;2808;51.240;6.794;2022-08-19T09:38:30;22.63;;;15.27;;
5569;SDS011;2808;51.240;6.794;2022-08-19T09:41:01;20.40;;;14.20;;
5569;SDS011;2808;51.240;6.794;2022-08-19T09:43:33;24.50;;;15.70;;
5569;SDS011;2808;51.240;6.794;2022-08-19T09:46:05;30.20;;;18.07;;
5569;SDS011;2808;51.240;6.794;2022-08-19T09:48:54;25.70;;;16.83;;
5569;SDS011;2808;51.240;6.794;2022-08-19T09:51:26;25.80;;;16.33;;
5569;SDS011;2808;51.240;6.794;2022-08-19T09:53:54;24.53;;;17.13;;
5569;SDS011;2808;51.240;6.794;2022-08-19T09:59:35;26.27;;;18.00;;
5569;SDS011;2808;51.240;6.794;2022-08-19T10:02:06;28.40;;;17.80;;
5569;SDS011;2808;51.240;6.794;2022-08-19T10:04:39;29.73;;;19.40;;
5569;SDS011;2808;51.240;6.794;2022-08-19T10:07:24;29.23;;;19.33;;
5569;SDS011;2808;51.240;6.794;2022-08-19T10:09:51;27.80;;;17.23;;
5569;SDS011;2808;51.240;6.794;2022-08-19T10:12:21;35.73;;;20.43;;
5569;SDS011;2808;51.240;6.794;2022-08-19T10:14:53;23.10;;;15.73;;
5569;SDS011;2808;51.240;6.794;2022-08-19T10:17:23;23.00;;;13.70;;
5569;SDS011;2808;51.240;6.794;2022-08-19T10:19:54;23.20;;;16.50;;
5569;SDS011;2808;51.240;6.794;2022-08-19T10:22:23;21.10;;;12.73;;
5569;SDS011;2808;51.240;6.794;2022-08-19T10:25:12;24.00;;;14.20;;
5569;SDS011;2808;51.240;6.794;2022-08-19T10:27:42;23.33;;;16.20;;
5569;SDS011;2808;51.240;6.794;2022-08-19T10:30:17;22.00;;;14.93;;
5569;SDS011;2808;51.240;6.794;2022-08-19T10:32:50;24.67;;;15.30;;
5569;SDS011;2808;51.240;6.794;2022-08-19T10:35:18;22.70;;;15.00;;
5569;SDS011;2808;51.240;6.794;2022-08-19T10:37:48;20.70;;;15.27;;
5569;SDS011;2808;51.240;6.794;2022-08-19T10:41:05;20.30;;;13.07;;
5569;SDS011;2808;51.240;6.794;2022-08-19T10:44:07;22.13;;;14.30;;
5569;SDS011;2808;51.240;6.794;2022-08-19T10:46:56;20.00;;;13.30;;
5569;SDS011;2808;51.240;6.794;2022-08-19T10:49:39;19.57;;;12.27;;
5569;SDS011;2808;51.240;6.794;2022-08-19T10:52:25;20.97;;;13.73;;
5569;SDS011;2808;51.240;6.794;2022-08-19T11:04:47;15.10;;;10.00;;
5569;SDS011;2808;51.240;6.794;2022-08-19T11:07:40;19.03;;;9.13;;
5569;SDS011;2808;51.240;6.794;2022-08-19T11:10:37;13.40;;;7.90;;
5569;SDS011;2808;51.240;6.794;2022-08-19T11:13:42;15.00;;;8.53;;
5569;SDS011;2808;51.240;6.794;2022-08-19T11:20:09;15.63;;;9.40;;
5569;SDS011;2808;51.240;6.794;2022-08-19T11:23:01;16.00;;;9.43;;
5569;SDS011;2808;51.240;6.794;2022-08-19T11:25:32;13.70;;;8.37;;
5569;SDS011;2808;51.240;6.794;2022-08-19T11:28:00;14.67;;;9.00;;
5569;SDS011;2808;51.240;6.794;2022-08-19T11:30:40;12.90;;;8.80;;
5569;SDS011;2808;51.240;6.794;2022-08-19T11:33:11;15.17;;;8.20;;
5569;SDS011;2808;51.240;6.794;2022-08-19T11:35:47;16.33;;;9.87;;
5569;SDS011;2808;51.240;6.794;2022-08-19T11:38:17;15.17;;;8.87;;
5569;SDS011;2808;51.240;6.794;2022-08-19T11:40:53;16.40;;;9.73;;
5569;SDS011;2808;51.240;6.794;2022-08-19T11:43:27;13.70;;;9.47;;
5569;SDS011;2808;51.240;6.794;2022-08-19T11:46:03;16.20;;;9.77;;
5569;SDS011;2808;51.240;6.794;2022-08-19T11:48:37;15.47;;;9.40;;
5569;SDS011;2808;51.240;6.794;2022-08-19T11:51:10;12.77;;;8.40;;
5569;SDS011;2808;51.240;6.794;2022-08-19T11:53:41;20.80;;;9.33;;
5569;SDS011;2808;51.240;6.794;2022-08-19T11:56:12;17.13;;;10.33;;
5569;SDS011;2808;51.240;6.794;2022-08-19T11:58:42;14.67;;;10.67;;
5569;SDS011;2808;51.240;6.794;2022-08-19T12:01:17;14.43;;;8.70;;
5569;SDS011;2808;51.240;6.794;2022-08-19T12:03:49;14.30;;;8.50;;
5569;SDS011;2808;51.240;6.794;2022-08-19T12:06:20;15.50;;;10.33;;
5569;SDS011;2808;51.240;6.794;2022-08-19T12:09:04;15.63;;;7.80;;
5569;SDS011;2808;51.240;6.794;2022-08-19T12:11:40;11.57;;;7.40;;
5569;SDS011;2808;51.240;6.794;2022-08-19T12:14:11;12.53;;;7.60;;
5569;SDS011;2808;51.240;6.794;2022-08-19T12:16:39;12.17;;;7.83;;
5569;SDS011;2808;51.240;6.794;2022-08-19T12:19:12;12.60;;;7.50;;
5569;SDS011;2808;51.240;6.794;2022-08-19T12:21:43;11.30;;;8.40;;
5569;SDS011;2808;51.240;6.794;2022-08-19T12:24:13;16.00;;;8.80;;
5569;SDS011;2808;51.240;6.794;2022-08-19T12:26:48;14.90;;;8.33;;
5569;SDS011;2808;51.240;6.794;2022-08-19T12:29:18;13.50;;;7.77;;
5569;SDS011;2808;51.240;6.794;2022-08-19T12:31:46;13.00;;;7.47;;
5569;SDS011;2808;51.240;6.794;2022-08-19T12:34:13;14.00;;;6.70;;
5569;SDS011;2808;51.240;6.794;2022-08-19T12:36:42;15.17;;;7.87;;
5569;SDS011;2808;51.240;6.794;2022-08-19T12:39:10;10.40;;;6.73;;
5569;SDS011;2808;51.240;6.794;2022-08-19T12:41:37;15.77;;;7.80;;
5569;SDS011;2808;51.240;6.794;2022-08-19T12:44:05;11.17;;;7.70;;
5569;SDS011;2808;51.240;6.794;2022-08-19T12:46:33;13.90;;;8.07;;
5569;SDS011;2808;51.240;6.794;2022-08-19T12:49:00;12.20;;;7.10;;
5569;SDS011;2808;51.240;6.794;2022-08-19T12:51:28;10.70;;;6.17;;
5569;SDS011;2808;51.240;6.794;2022-08-19T12:53:57;11.90;;;7.60;;
5569;SDS011;2808;51.240;6.794;2022-08-19T12:56:26;10.10;;;6.67;;
5569;SDS011;2808;51.240;6.794;2022-08-19T12:58:54;9.30;;;6.13;;
5569;SDS011;2808;51.240;6.794;2022-08-19T13:01:21;8.70;;;5.37;;
5569;SDS011;2808;51.240;6.794;2022-08-19T13:03:49;9.13;;;6.00;;
5569;SDS011;2808;51.240;6.794;2022-08-19T13:06:19;9.70;;;6.17;;
5569;SDS011;2808;51.240;6.794;2022-08-19T13:08:47;9.60;;;5.83;;
5569;SDS011;2808;51.240;6.794;2022-08-19T13:11:17;10.43;;;6.70;;
5569;SDS011;2808;51.240;6.794;2022-08-19T13:13:49;18.80;;;9.60;;
5569;SDS011;2808;51.240;6.794;2022-08-19T13:16:20;16.70;;;8.73;;
5569;SDS011;2808;51.240;6.794;2022-08-19T13:18:53;12.40;;;5.90;;
5569;SDS011;2808;51.240;6.794;2022-08-19T13:21:23;10.23;;;5.33;;
5569;SDS011;2808;51.240;6.794;2022-08-19T13:23:52;6.60;;;4.90;;
5569;SDS011;2808;51.240;6.794;2022-08-19T13:26:21;10.90;;;5.10;;
5569;SDS011;2808;51.240;6.794;2022-08-19T13:28:48;8.47;;;5.77;;
5569;SDS011;2808;51.240;6.794;2022-08-19T13:31:35;12.67;;;5.17;;
5569;SDS011;2808;51.240;6.794;2022-08-19T13:34:26;8.70;;;4.67;;
5569;SDS011;2808;51.240;6.794;2022-08-19T13:36:55;8.23;;;5.17;;
5569;SDS011;2808;51.240;6.794;2022-08-19T13:39:23;9.77;;;4.83;;
5569;SDS011;2808;51.240;6.794;2022-08-19T13:41:53;14.40;;;5.63;;
5569;SDS011;2808;51.240;6.794;2022-08-19T13:44:21;7.83;;;5.10;;
5569;SDS011;2808;51.240;6.794;2022-08-19T13:46:48;11.67;;;5.27;;
5569;SDS011;2808;51.240;6.794;2022-08-19T13:49:17;10.70;;;5.30;;
5569;SDS011;2808;51.240;6.794;2022-08-19T13:51:45;9.83;;;4.20;;
5569;SDS011;2808;51.240;6.794;2022-08-19T13:54:13;9.90;;;4.50;;
5569;SDS011;2808;51.240;6.794;2022-08-19T13:56:41;12.70;;;5.20;;
5569;SDS011;2808;51.240;6.794;2022-08-19T13:59:10;11.03;;;5.17;;
5569;SDS011;2808;51.240;6.794;2022-08-19T14:01:39;15.23;;;6.13;;
5569;SDS011;2808;51.240;6.794;2022-08-19T14:04:06;13.73;;;4.60;;
5569;SDS011;2808;51.240;6.794;2022-08-19T14:06:34;8.37;;;4.20;;
5569;SDS011;2808;51.240;6.794;2022-08-19T14:09:02;11.30;;;4.23;;
5569;SDS011;2808;51.240;6.794;2022-08-19T14:11:30;9.67;;;4.30;;
5569;SDS011;2808;51.240;6.794;2022-08-19T14:13:58;7.93;;;4.30;;
5569;SDS011;2808;51.240;6.794;2022-08-19T14:16:27;8.60;;;4.50;;
5569;SDS011;2808;51.240;6.794;2022-08-19T14:18:55;7.60;;;3.83;;
5569;SDS011;2808;51.240;6.794;2022-08-19T14:21:23;9.27;;;4.40;;
5569;SDS011;2808;51.240;6.794;2022-08-19T14:23:51;6.57;;;4.30;;
5569;SDS011;2808;51.240;6.794;2022-08-19T14:26:19;7.90;;;4.00;;
5569;SDS011;2808;51.240;6.794;2022-08-19T14:28:49;7.77;;;4.27;;
5569;SDS011;2808;51.240;6.794;2022-08-19T14:31:22;7.60;;;4.10;;
5569;SDS011;2808;51.240;6.794;2022-08-19T14:33:52;10.53;;;3.60;;
5569;SDS011;2808;51.240;6.794;2022-08-19T14:36:19;7.63;;;3.70;;
5569;SDS011;2808;51.240;6.794;2022-08-19T14:38:48;11.57;;;3.80;;
5569;SDS011;2808;51.240;6.794;2022-08-19T14:41:16;13.63;;;4.33;;
5569;SDS011;2808;51.240;6.794;2022-08-19T14:43:46;9.33;;;4.67;;
5569;SDS011;2808;51.240;6.794;2022-08-19T14:46:16;8.33;;;3.50;;
5569;SDS011;2808;51.240;6.794;2022-08-19T14:48:45;7.17;;;3.30;;
5569;SDS011;2808;51.240;6.794;2022-08-19T14:51:15;10.13;;;3.67;;
5569;SDS011;2808;51.240;6.794;2022-08-19T14:53:44;7.70;;;3.50;;
5569;SDS011;2808;51.240;6.794;2022-08-19T14:56:14;7.43;;;3.53;;
5569;SDS011;2808;51.240;6.794;2022-08-19T14:58:43;11.10;;;3.70;;
5569;SDS011;2808;51.240;6.794;2022-08-19T15:01:14;9.03;;;4.13;;
5569;SDS011;2808;51.240;6.794;2022-08-19T15:03:42;10.10;;;4.10;;
5569;SDS011;2808;51.240;6.794;2022-08-19T15:06:09;7.73;;;3.80;;
5569;SDS011;2808;51.240;6.794;2022-08-19T15:08:42;11.10;;;4.30;;
5569;SDS011;2808;51.240;6.794;2022-08-19T15:11:10;11.77;;;4.30;;
5569;SDS011;2808;51.240;6.794;2022-08-19T15:13:40;7.73;;;4.07;;
5569;SDS011;2808;51.240;6.794;2022-08-19T15:16:09;8.50;;;3.90;;
5569;SDS011;2808;51.240;6.794;2022-08-19T15:18:40;30.10;;;4.60;;
5569;SDS011;2808;51.240;6.794;2022-08-19T15:21:10;14.70;;;3.30;;
5569;SDS011;2808;51.240;6.794;2022-08-19T15:23:45;7.73;;;3.80;;
5569;SDS011;2808;51.240;6.794;2022-08-19T15:26:19;10.60;;;3.60;;
5569;SDS011;2808;51.240;6.794;2022-08-19T15:28:48;5.83;;;3.70;;
5569;SDS011;2808;51.240;6.794;2022-08-19T15:31:17;6.93;;;3.50;;
5569;SDS011;2808;51.240;6.794;2022-08-19T15:33:54;6.13;;;3.63;;
5569;SDS011;2808;51.240;6.794;2022-08-19T15:36:25;8.97;;;4.30;;
5569;SDS011;2808;51.240;6.794;2022-08-19T15:38:56;9.93;;;4.80;;
5569;SDS011;2808;51.240;6.794;2022-08-19T15:41:28;10.93;;;4.83;;